Time;durP1;ratioP1;P1;durP2;ratioP2;P2;SDS_P1;SDS_P2;PMS_P1;PMS_P2;Temp;Humidity;BMP_temperature;BMP_pressure;BME280_temperature;BME280_humidity;BME280_pressure;Samples;Min_cycle;Max_cycle;Signal;HPM_P1;HPM_P2
2023/01/03 00:01:50;;;;;;;1.27;1.10;;;9.40;89.20;;;12.55;51.04;98685.22;5044293;28;20068;-51
2023/01/03 00:04:20;;;;;;;1.47;1.13;;;9.60;88.70;;;12.52;50.77;98698.03;5043664;28;20119;-47
2023/01/03 00:06:52;;;;;;;1.40;1.20;;;9.50;88.40;;;12.55;51.04;98695.06;5042675;28;20347;-47
2023/01/03 00:09:22;;;;;;;1.73;1.30;;;9.50;88.50;;;12.44;51.10;98698.78;5043121;28;20243;-47
2023/01/03 00:14:42;;;;;;;1.20;1.00;;;9.40;88.00;;;12.50;50.71;98694.66;5043763;28;20244;-47
2023/01/03 00:17:11;;;;;;;1.50;1.17;;;9.50;88.10;;;12.50;51.06;98702.69;5044138;28;20243;-49
2023/01/03 00:19:42;;;;;;;1.67;1.17;;;9.50;87.80;;;12.53;50.79;98697.06;5044054;28;20045;-48
2023/01/03 00:22:12;;;;;;;3.00;1.37;;;9.60;87.50;;;12.58;50.68;98703.66;5043906;28;20255;-49
2023/01/03 00:24:42;;;;;;;1.63;1.13;;;9.60;87.30;;;12.61;50.57;98708.66;5043067;28;20060;-48
2023/01/03 00:27:10;;;;;;;3.13;1.53;;;9.60;87.10;;;12.67;50.59;98701.06;5043919;28;20051;-52
2023/01/03 00:29:38;;;;;;;2.00;1.40;;;9.70;87.00;;;12.67;50.56;98704.56;5042864;28;20248;-49
2023/01/03 00:32:07;;;;;;;2.47;1.10;;;9.70;86.50;;;12.70;50.32;98703.44;5042407;28;20037;-49
2023/01/03 00:34:35;;;;;;;1.63;1.30;;;9.70;86.40;;;12.70;50.33;98695.44;5043504;28;20048;-50
2023/01/03 00:37:03;;;;;;;1.63;1.27;;;9.70;86.20;;;12.69;50.44;98707.94;5043831;28;20048;-48
2023/01/03 00:39:32;;;;;;;1.87;1.47;;;9.70;86.20;;;12.67;50.61;98704.56;5043727;28;20100;-49
2023/01/03 00:42:00;;;;;;;2.40;1.40;;;9.70;86.50;;;12.59;50.70;98702.63;5043412;28;20058;-49
2023/01/03 00:44:28;;;;;;;1.30;1.10;;;9.60;86.30;;;12.66;50.40;98700.22;5042218;28;20053;-50
2023/01/03 00:46:56;;;;;;;1.67;1.00;;;9.60;86.30;;;12.70;50.43;98704.28;5042885;28;20060;-47
2023/01/03 00:49:24;;;;;;;1.33;1.17;;;9.70;86.10;;;12.72;50.39;98704.13;5043685;28;20247;-52
2023/01/03 00:51:54;;;;;;;1.20;1.07;;;9.60;85.60;;;12.69;50.22;98710.59;5043306;28;20355;-48
2023/01/03 00:54:23;;;;;;;1.67;1.30;;;9.60;86.20;;;12.68;50.08;98706.25;5042698;28;20047;-48
2023/01/03 00:56:51;;;;;;;1.70;1.13;;;9.70;86.20;;;12.71;50.11;98705.13;5043243;28;20048;-52
2023/01/03 00:59:20;;;;;;;2.63;1.50;;;9.70;85.90;;;12.72;50.10;98712.16;5043173;28;20047;-49
2023/01/03 01:01:55;;;;;;;1.97;1.30;;;9.70;86.50;;;12.73;50.28;98711.97;5043135;28;20365;-48
2023/01/03 01:04:30;;;;;;;1.50;1.30;;;9.70;85.50;;;12.74;50.05;98713.69;5042872;28;20049;-48
2023/01/03 01:07:03;;;;;;;2.37;1.37;;;9.70;85.50;;;12.74;50.03;98711.00;5043164;28;20051;-52
2023/01/03 01:09:35;;;;;;;1.88;1.20;;;9.70;85.40;;;12.75;49.67;98704.66;5043141;28;20055;-48
2023/01/03 01:12:05;;;;;;;2.10;1.00;;;9.70;85.20;;;12.74;50.03;98699.50;5042849;28;20354;-49
2023/01/03 01:14:34;;;;;;;2.57;1.03;;;9.70;85.30;;;12.71;50.10;98697.09;5042667;28;20243;-47
2023/01/03 01:17:06;;;;;;;2.53;1.00;;;9.60;85.10;;;12.68;49.84;98695.56;5042630;28;20049;-48
2023/01/03 01:19:38;;;;;;;2.67;1.17;;;9.60;85.20;;;12.63;49.64;98700.50;5041600;28;20049;-51
2023/01/03 01:22:07;;;;;;;2.40;0.97;;;9.60;85.20;;;12.56;49.87;98700.28;5042704;28;20050;-49
2023/01/03 01:24:35;;;;;;;1.33;1.00;;;9.50;85.40;;;12.57;49.84;98709.97;5042681;28;20033;-53
2023/01/03 01:27:03;;;;;;;2.20;1.27;;;9.50;85.40;;;12.60;50.02;98704.34;5041589;28;20041;-48
2023/01/03 01:29:31;;;;;;;1.40;1.30;;;9.60;85.10;;;12.60;49.91;98701.66;5042505;28;20037;-50
2023/01/03 01:32:00;;;;;;;1.83;1.20;;;9.60;84.60;;;12.57;49.81;98701.94;5041672;28;20045;-50
2023/01/03 01:34:29;;;;;;;0.83;0.83;;;9.60;84.70;;;12.59;49.74;98713.31;5042396;28;20037;-49
2023/01/03 01:36:57;;;;;;;1.53;1.20;;;9.60;84.40;;;12.58;49.63;98708.97;5042434;28;20060;-48
2023/01/03 01:39:27;;;;;;;1.10;0.90;;;9.60;84.40;;;12.59;49.77;98720.50;5042280;28;20228;-46
2023/01/03 01:45:04;;;;;;;1.20;1.10;;;9.50;84.30;;;12.57;50.01;98723.31;5038770;28;20052;-47
2023/01/03 01:48:10;;;;;;;1.63;1.17;;;9.60;84.50;;;12.52;49.76;98724.75;5042673;28;20047;-51
2023/01/03 01:50:54;;;;;;;1.30;1.00;;;9.50;84.40;;;12.54;50.02;98736.13;5041494;28;20045;-51
2023/01/03 01:53:32;;;;;;;1.63;1.17;;;9.50;84.50;;;12.54;49.96;98749.47;5040541;28;20052;-48
2023/01/03 01:56:28;;;;;;;1.50;1.00;;;9.50;84.70;;;12.46;49.92;98744.88;5042278;28;20284;-50
2023/01/03 01:58:56;;;;;;;1.87;1.10;;;9.40;84.80;;;12.44;50.15;98736.16;5041233;28;20100;-51
2023/01/03 02:01:24;;;;;;;1.27;1.10;;;9.40;84.90;;;12.45;50.05;98731.69;5041266;28;20120;-48
2023/01/03 02:04:02;;;;;;;1.33;0.90;;;9.40;84.90;;;12.43;49.90;98726.47;5041526;28;20090;-51
2023/01/03 02:06:31;;;;;;;1.47;1.00;;;9.40;84.70;;;12.44;49.86;98714.78;5041069;28;20365;-47
2023/01/03 02:08:59;;;;;;;1.57;0.90;;;9.40;84.80;;;12.47;49.82;98721.69;5042096;28;20053;-47
2023/01/03 02:11:45;;;;;;;1.50;1.30;;;9.50;84.70;;;12.47;49.90;98719.84;5042431;28;20045;-53
2023/01/03 02:14:46;;;;;;;1.60;1.10;;;9.50;84.70;;;12.25;50.34;98721.03;5033247;28;20055;-49
2023/01/03 02:17:27;;;;;;;1.67;1.10;;;9.50;84.10;;;12.41;50.11;98715.09;5033052;28;20042;-50
2023/01/03 02:20:09;;;;;;;1.60;1.20;;;9.40;84.90;;;12.41;50.05;98721.28;5042911;28;20362;-48
2023/01/03 02:23:09;;;;;;;1.57;1.30;;;9.40;84.90;;;12.30;50.05;98723.28;5041755;28;20048;-48
2023/01/03 02:25:49;;;;;;;2.63;1.20;;;9.30;85.00;;;12.27;50.17;98729.78;5065635;28;20048;-50
2023/01/03 02:28:48;;;;;;;2.57;1.20;;;9.20;85.50;;;12.24;50.31;98726.56;5034234;28;20255;-49
2023/01/03 02:31:36;;;;;;;1.93;1.40;;;9.30;85.70;;;12.24;50.11;98724.72;5034208;28;20045;-46
2023/01/03 02:34:20;;;;;;;1.37;1.20;;;9.20;85.80;;;12.17;50.45;98736.94;5040410;28;20041;-50
2023/01/03 02:37:23;;;;;;;2.17;1.50;;;9.20;86.30;;;12.16;50.24;98735.28;5041759;28;20046;-46
2023/01/03 02:40:21;;;;;;;1.77;1.30;;;9.20;86.40;;;12.19;50.08;98742.97;5041572;28;20340;-48
2023/01/03 02:43:04;;;;;;;1.70;1.23;;;9.20;86.40;;;12.17;50.63;98739.63;5039870;28;20054;-46
2023/01/03 02:45:45;;;;;;;3.15;1.85;;;9.10;86.20;;;12.18;50.25;98738.66;5041468;28;20048;-49
2023/01/03 02:48:30;;;;;;;3.07;1.43;;;9.10;86.30;;;12.14;50.37;98739.94;5035766;28;20068;-48
2023/01/03 02:50:59;;;;;;;;;;;9.10;86.10;;;12.18;50.14;98738.66;5046043;28;20059;-49
2023/01/03 02:53:36;;;;;;;3.57;1.33;;;9.10;86.60;;;12.13;50.10;98723.03;5044714;28;19917;-51
2023/01/03 02:56:10;;;;;;;1.63;1.20;;;9.00;86.20;;;12.05;50.19;98730.09;5044705;28;20041;-49
2023/01/03 02:58:42;;;;;;;2.53;1.20;;;8.90;86.40;;;11.99;50.46;98737.69;5044370;28;20251;-47
2023/01/03 03:01:13;;;;;;;3.07;1.40;;;8.90;86.70;;;11.95;50.33;98738.97;5028107;28;20041;-48
2023/01/03 03:03:42;;;;;;;2.63;1.30;;;8.80;86.90;;;11.91;50.53;98736.75;5044010;28;20075;-50
2023/01/03 03:06:46;;;;;;;2.37;1.47;;;8.80;86.80;;;11.86;50.39;98739.78;5044387;28;20045;-47
2023/01/03 03:09:14;;;;;;;2.47;1.17;;;8.80;87.10;;;11.87;50.34;98744.16;5036670;28;20045;-51
2023/01/03 03:14:47;;;;;;;2.00;1.33;;;8.80;88.00;;;11.83;50.75;98742.75;5038189;28;20250;-50
2023/01/03 03:17:23;;;;;;;2.33;1.30;;;8.80;87.50;;;11.83;50.83;98748.94;5036452;28;20246;-47
2023/01/03 03:26:36;;;;;;;1.40;1.20;;;8.80;87.80;;;11.83;50.96;98742.75;5049321;28;20053;-51
2023/01/03 03:29:11;;;;;;;2.88;1.20;;;8.90;87.90;;;11.85;50.90;98732.78;5019239;28;20049;-48
2023/01/03 03:31:45;;;;;;;3.07;1.30;;;8.80;87.60;;;11.80;50.92;98733.19;5043787;28;20041;-47
2023/01/03 03:34:31;;;;;;;1.43;1.10;;;8.70;88.10;;;11.76;51.28;98733.63;5035475;28;20252;-53
2023/01/03 03:37:03;;;;;;;2.47;1.30;;;8.70;88.40;;;11.73;50.80;98729.44;5044049;28;20099;-51
2023/01/03 03:46:05;;;;;;;3.53;1.50;;;8.70;88.50;;;11.71;50.83;98744.75;5048624;28;20049;-50
2023/01/03 03:51:53;;;;;;;2.10;1.50;;;8.60;88.60;;;11.67;51.26;98742.47;5041687;28;20041;-48
2023/01/03 03:54:24;;;;;;;2.27;1.40;;;8.60;88.70;;;11.61;51.18;98741.22;5043259;28;20041;-47
2023/01/03 03:57:05;;;;;;;2.07;1.40;;;8.60;88.70;;;11.59;51.42;98743.19;5043293;28;20045;-51
2023/01/03 03:59:34;;;;;;;2.13;1.53;;;8.50;89.30;;;11.57;51.02;98754.00;5042097;28;20047;-49
2023/01/03 04:02:05;;;;;;;2.67;1.50;;;8.50;89.40;;;11.55;51.48;98736.44;5043228;28;20045;-48
2023/01/03 04:04:45;;;;;;;1.90;1.70;;;8.50;89.50;;;11.53;51.49;98743.75;5043087;28;20243;-48
2023/01/03 04:07:12;;;;;;;1.67;1.27;;;8.50;89.70;;;11.52;51.40;98745.56;5042879;28;20049;-49
2023/01/03 04:09:40;;;;;;;2.77;1.47;;;8.50;89.80;;;11.50;51.83;98738.72;5044208;28;20078;-49
2023/01/03 04:12:08;;;;;;;1.53;1.37;;;8.50;90.00;;;11.53;51.49;98749.06;5044040;28;20060;-47
2023/01/03 04:14:36;;;;;;;3.50;1.43;;;8.50;90.00;;;11.54;51.87;98754.28;5043667;28;20328;-48
2023/01/03 04:17:03;;;;;;;1.60;1.30;;;8.50;90.20;;;11.57;51.66;98750.47;5044170;28;20045;-50
2023/01/03 04:19:31;;;;;;;3.77;1.37;;;8.60;90.10;;;11.62;51.66;98750.91;5043000;28;20055;-47
2023/01/03 04:21:59;;;;;;;1.53;1.30;;;8.50;90.20;;;11.64;51.57;98746.28;5043502;28;20077;-49
2023/01/03 04:24:27;;;;;;;1.33;1.20;;;8.60;90.00;;;11.66;51.55;98748.81;5043755;28;20049;-48
2023/01/03 04:26:55;;;;;;;2.03;1.50;;;8.50;90.20;;;11.66;51.93;98756.81;5043675;28;20362;-47
2023/01/03 04:29:23;;;;;;;1.70;1.40;;;8.60;90.40;;;11.65;51.47;98747.97;5043854;28;20259;-47
2023/01/03 04:31:50;;;;;;;4.43;1.70;;;8.60;90.50;;;11.67;51.95;98756.69;5044208;28;20053;-50
2023/01/03 04:34:18;;;;;;;2.07;1.20;;;8.50;90.70;;;11.71;51.98;98759.88;5043630;28;20247;-49
2023/01/03 04:36:46;;;;;;;3.27;1.50;;;8.60;90.60;;;11.71;51.72;98763.41;5044028;28;20042;-47
2023/01/03 04:39:14;;;;;;;1.60;1.27;;;8.60;90.50;;;11.71;52.03;98759.88;5035797;28;20046;-47
2023/01/03 04:41:42;;;;;;;1.13;1.03;;;8.60;90.70;;;11.70;52.05;98766.22;5043654;28;20339;-48
2023/01/03 04:44:10;;;;;;;2.00;1.30;;;8.60;90.70;;;11.71;51.87;98767.88;5041393;28;20232;-48
2023/01/03 04:46:39;;;;;;;1.30;1.20;;;8.60;90.90;;;11.73;51.89;98769.44;5042514;28;20056;-48
2023/01/03 04:49:09;;;;;;;2.07;1.60;;;8.60;90.90;;;11.74;51.77;98772.94;5043574;28;20063;-50
2023/01/03 04:51:37;;;;;;;1.70;1.27;;;8.60;90.70;;;11.71;51.92;98774.09;5043490;28;20049;-48
2023/01/03 04:54:05;;;;;;;3.13;1.40;;;8.60;90.70;;;11.68;51.94;98778.84;5041969;28;20048;-48
2023/01/03 04:56:37;;;;;;;2.03;1.40;;;8.60;90.70;;;11.66;51.70;98781.66;5043591;28;20055;-50
2023/01/03 04:59:05;;;;;;;2.03;1.20;;;8.50;90.90;;;11.60;51.75;98788.38;5043447;28;20348;-48
2023/01/03 05:01:33;;;;;;;2.00;1.50;;;8.50;91.30;;;11.60;51.95;98780.38;5043530;28;20041;-50
2023/01/03 05:04:01;;;;;;;1.70;1.33;;;8.50;91.50;;;11.61;51.95;98790.09;5043013;28;20041;-47
2023/01/03 05:06:29;;;;;;;3.20;1.50;;;8.50;91.40;;;11.60;51.99;98782.22;5043525;28;20055;-47
2023/01/03 05:08:57;;;;;;;5.20;1.93;;;8.50;91.60;;;11.62;51.79;98788.25;5042973;28;20057;-52
2023/01/03 05:11:25;;;;;;;1.73;1.60;;;8.50;91.70;;;11.60;51.98;98779.56;5043013;28;20344;-47
2023/01/03 05:13:53;;;;;;;1.30;0.97;;;8.50;91.70;;;11.62;52.09;98775.75;5042625;28;20047;-50
2023/01/03 05:16:21;;;;;;;1.73;1.33;;;8.50;91.50;;;11.62;51.79;98772.25;5042834;28;20045;-49
2023/01/03 05:18:52;;;;;;;3.77;1.60;;;8.50;91.70;;;11.60;51.82;98771.56;5042822;28;20067;-47
2023/01/03 05:27:03;;;;;;;3.50;1.80;;;8.30;92.60;;;11.49;52.31;98767.19;5042941;28;20048;-47
2023/01/03 05:29:33;;;;;;;2.63;1.55;;;8.30;93.60;;;11.48;51.66;98768.19;5041965;28;20243;-50
2023/01/03 05:32:01;;;;;;;2.67;1.40;;;8.30;93.10;;;11.43;52.25;98773.91;5042693;28;20282;-48
2023/01/03 05:34:29;;;;;;;2.10;1.90;;;8.20;92.90;;;11.38;52.03;98778.84;5042554;28;20264;-48
2023/01/03 05:36:57;;;;;;;2.10;1.53;;;8.20;93.00;;;11.38;51.99;98780.63;5042807;28;20041;-51
2023/01/03 05:39:24;;;;;;;1.97;1.37;;;8.20;93.20;;;11.35;52.40;98776.44;5042611;28;20047;-47
2023/01/03 05:41:58;;;;;;;2.07;1.70;;;8.20;93.20;;;11.34;52.10;98780.09;5042557;28;20339;-47
2023/01/03 05:44:29;;;;;;;7.55;1.75;;;8.10;93.10;;;11.31;51.93;98784.84;5042336;28;20037;-50
2023/01/03 05:47:03;;;;;;;3.60;1.50;;;8.10;93.20;;;11.27;51.97;98788.78;5042593;28;20247;-52
2023/01/03 05:49:30;;;;;;;;;;;8.10;93.50;;;11.30;51.58;98801.81;5041239;28;20052;-51
2023/01/03 05:51:58;;;;;;;2.10;1.23;;;8.00;94.00;;;11.27;51.75;98796.78;5042181;28;19917;-49
2023/01/03 05:54:26;;;;;;;2.30;1.33;;;8.00;94.30;;;11.20;52.40;98805.31;5041862;28;20059;-48
2023/01/03 05:56:54;;;;;;;2.20;1.60;;;8.00;94.90;;;11.18;52.49;98801.94;5042481;28;20048;-49
2023/01/03 05:59:22;;;;;;;3.17;1.30;;;8.00;94.90;;;11.15;52.27;98806.72;5042441;28;20046;-51
2023/01/03 06:01:50;;;;;;;3.70;1.40;;;8.00;94.60;;;11.14;52.10;98803.19;5042073;28;20037;-47
2023/01/03 06:04:18;;;;;;;2.70;1.57;;;8.00;95.10;;;11.11;52.71;98798.16;5042040;28;20032;-47
2023/01/03 06:06:47;;;;;;;1.80;1.33;;;7.90;95.10;;;11.13;52.05;98798.03;5042397;28;20059;-48
2023/01/03 06:09:15;;;;;;;2.87;1.57;;;8.00;94.80;;;11.10;52.33;98806.28;5034606;28;20034;-48
2023/01/03 06:11:43;;;;;;;1.87;1.63;;;8.00;94.60;;;11.04;52.77;98797.84;5042036;28;20049;-48
2023/01/03 06:14:11;;;;;;;1.83;1.60;;;7.90;95.90;;;11.07;52.71;98806.53;5041932;28;20526;-49
2023/01/03 06:19:26;;;;;;;3.20;1.70;;;8.00;94.70;;;11.12;52.68;98805.16;5035566;28;20243;-52
2023/01/03 06:21:53;;;;;;;3.73;2.03;;;8.00;94.80;;;11.15;52.38;98810.22;5041719;28;20055;-51
2023/01/03 06:24:21;;;;;;;5.20;3.40;;;8.00;94.60;;;11.14;52.13;98803.19;5041507;28;20366;-49
2023/01/03 06:26:49;;;;;;;5.87;2.87;;;8.00;94.30;;;11.08;52.36;98813.56;5041888;28;20037;-49
2023/01/03 06:29:17;;;;;;;3.90;2.80;;;8.00;94.90;;;11.09;52.83;98815.22;5041736;28;20044;-49
2023/01/03 06:31:44;;;;;;;3.50;1.97;;;8.00;95.30;;;11.04;52.18;98811.16;5041939;28;20242;-53
2023/01/03 06:34:14;;;;;;;2.77;2.00;;;7.90;94.60;;;10.99;52.54;98813.41;5034003;28;20056;-49
2023/01/03 06:36:42;;;;;;;2.17;1.50;;;7.80;94.90;;;10.95;52.59;98819.13;5041934;28;20125;-48
2023/01/03 06:39:10;;;;;;;5.50;1.93;;;7.80;95.20;;;10.92;52.16;98816.75;5042266;28;20051;-50
2023/01/03 06:41:37;;;;;;;2.13;1.60;;;7.70;95.60;;;10.91;52.39;98817.72;5041576;28;20037;-50
2023/01/03 06:44:05;;;;;;;2.37;1.73;;;7.80;95.60;;;10.90;52.38;98806.22;5041452;28;20048;-53
2023/01/03 06:55:00;;;;;;;3.38;1.23;;;7.70;95.50;;;10.76;52.64;98828.75;5039596;28;20056;-53
2023/01/03 06:57:28;;;;;;;3.53;1.90;;;7.70;95.50;;;10.73;52.34;98825.50;5041632;28;20044;-52
2023/01/03 06:59:56;;;;;;;3.10;1.60;;;7.60;95.50;;;10.70;52.75;98828.41;5041361;28;20053;-50
2023/01/03 07:02:23;;;;;;;3.10;1.50;;;7.60;95.60;;;10.63;52.56;98826.28;5041400;28;20044;-51
2023/01/03 07:04:52;;;;;;;2.20;1.50;;;7.60;95.70;;;10.61;52.81;98830.06;5041340;28;20038;-53
2023/01/03 07:07:19;;;;;;;3.47;2.30;;;7.50;95.80;;;10.60;52.65;98839.00;5041553;28;20037;-50
2023/01/03 07:09:47;;;;;;;2.67;1.50;;;7.50;96.30;;;10.59;52.63;98826.69;5041581;28;20037;-48
2023/01/03 07:15:05;;;;;;;2.83;1.87;;;7.50;97.00;;;10.63;52.86;98828.94;5041094;28;20056;-52
2023/01/03 07:17:33;;;;;;;1.80;1.40;;;7.50;97.00;;;10.67;52.81;98836.69;5041445;28;20039;-51
2023/01/03 07:20:00;;;;;;;4.17;2.00;;;7.50;96.60;;;10.67;53.07;98836.69;5041568;28;20049;-50
2023/01/03 07:22:29;;;;;;;2.43;1.50;;;7.50;96.20;;;10.66;52.77;98845.63;5041338;28;20042;-49
2023/01/03 07:24:57;;;;;;;2.60;1.60;;;7.50;96.50;;;10.65;52.75;98842.13;5041588;28;20045;-53
2023/01/03 07:27:25;;;;;;;1.87;1.60;;;7.50;96.80;;;10.69;53.10;98843.56;5041836;28;20037;-50
2023/01/03 07:29:53;;;;;;;5.10;1.73;;;7.60;97.00;;;10.71;52.90;98840.75;5041481;28;20042;-48
2023/01/03 07:32:21;;;;;;;2.13;1.73;;;7.70;97.00;;;10.73;52.95;98850.31;5041192;28;20047;-48
2023/01/03 07:34:49;;;;;;;1.77;1.37;;;7.70;96.80;;;10.76;52.79;98847.38;5044330;28;20037;-53
2023/01/03 07:37:17;;;;;;;2.30;1.60;;;7.70;96.60;;;10.78;52.85;98849.91;5044983;28;20045;-51
2023/01/03 07:39:45;;;;;;;1.63;1.40;;;7.80;96.60;;;10.82;53.12;98849.50;5045128;28;20041;-51
2023/01/03 07:45:00;;;;;;;11.83;4.37;;;7.80;96.90;;;10.88;53.01;98850.81;5041446;28;20259;-52
2023/01/03 07:47:27;;;;;;;5.10;3.20;;;7.80;96.00;;;10.93;52.63;98853.06;5042895;28;20051;-49
2023/01/03 07:49:55;;;;;;;3.00;2.00;;;7.90;95.70;;;10.96;52.51;98856.28;5044602;28;20259;-48
2023/01/03 07:52:23;;;;;;;2.20;1.50;;;7.90;95.40;;;11.00;52.98;98863.03;5044634;28;20052;-50
2023/01/03 07:54:51;;;;;;;2.10;1.47;;;8.00;95.10;;;11.06;52.52;98869.66;5044332;28;20045;-50
2023/01/03 07:57:19;;;;;;;1.93;1.13;;;8.00;94.60;;;11.08;52.52;98873.03;5044607;28;20348;-53
2023/01/03 07:59:47;;;;;;;3.23;1.30;;;8.00;94.40;;;11.11;52.75;98885.22;5044495;28;20051;-54
2023/01/03 08:02:15;;;;;;;2.57;1.60;;;8.10;94.40;;;11.11;52.49;98878.09;5036675;28;20048;-51
2023/01/03 08:04:43;;;;;;;2.20;1.40;;;8.10;94.20;;;11.14;52.30;98876.97;5042777;28;20053;-49
2023/01/03 08:07:11;;;;;;;1.90;1.77;;;8.10;94.30;;;11.17;52.17;98874.91;5044372;28;20052;-47
2023/01/03 08:15:11;;;;;;;2.27;1.53;;;8.10;94.40;;;11.22;52.46;98875.34;5043549;28;20055;-53
2023/01/03 08:17:39;;;;;;;1.57;1.27;;;8.10;94.00;;;11.25;52.42;98879.56;5044018;28;20055;-53
2023/01/03 08:20:07;;;;;;;2.37;1.53;;;8.20;93.70;;;11.27;52.02;98879.41;5044311;28;20044;-53
2023/01/03 08:22:35;;;;;;;2.23;1.33;;;8.20;93.60;;;11.29;52.40;98877.47;5042591;28;20232;-49
2023/01/03 08:25:04;;;;;;;6.17;1.57;;;8.20;93.40;;;11.29;52.33;98880.97;5043888;28;20050;-51
2023/01/03 08:27:32;;;;;;;4.40;1.60;;;8.30;93.40;;;11.34;52.08;98888.53;5044056;28;20052;-49
2023/01/03 08:30:00;;;;;;;4.47;1.47;;;8.30;93.10;;;11.36;52.10;98886.59;5042775;28;20064;-54
2023/01/03 08:32:28;;;;;;;2.07;1.53;;;8.30;92.80;;;11.36;52.23;98883.91;5044059;28;20051;-53
2023/01/03 08:34:55;;;;;;;1.77;1.00;;;8.30;93.00;;;11.37;51.60;98889.13;5043728;28;20060;-52
2023/01/03 08:37:23;;;;;;;1.43;1.33;;;8.30;92.90;;;11.35;52.08;98891.06;5042836;28;20064;-50
2023/01/03 08:40:01;;;;;;;2.37;1.73;;;8.30;93.00;;;11.36;52.41;98892.78;5043303;28;20263;-49
2023/01/03 08:42:29;;;;;;;2.00;1.37;;;8.20;93.90;;;11.37;52.17;98893.63;5043633;28;20041;-50
2023/01/03 08:45:05;;;;;;;3.43;2.27;;;8.20;93.20;;;11.38;51.93;98892.63;5042784;28;20377;-53
2023/01/03 08:47:34;;;;;;;2.20;1.33;;;8.20;93.00;;;11.38;52.13;98901.47;5043847;28;20045;-51
2023/01/03 08:50:03;;;;;;;3.27;1.60;;;8.20;93.00;;;11.38;52.26;98905.94;5041812;28;20045;-52
2023/01/03 08:52:31;;;;;;;2.97;1.70;;;8.20;93.20;;;11.38;52.49;98905.94;5043756;28;20045;-54
2023/01/03 08:55:03;;;;;;;2.77;1.80;;;8.20;93.60;;;11.38;52.07;98912.16;5043340;28;20049;-49
2023/01/03 08:57:31;;;;;;;1.40;1.20;;;8.20;93.70;;;11.40;52.06;98910.19;5042784;28;20041;-53
2023/01/03 08:59:59;;;;;;;2.30;1.40;;;8.30;93.70;;;11.42;52.23;98912.72;5042067;28;20049;-54
2023/01/03 09:02:27;;;;;;;1.43;1.30;;;8.30;93.50;;;11.44;52.11;98913.44;5043423;28;20041;-49
2023/01/03 09:04:55;;;;;;;2.90;1.80;;;8.30;92.90;;;11.46;52.40;98914.13;5043140;28;20343;-54
2023/01/03 09:07:23;;;;;;;2.17;1.27;;;8.40;92.80;;;11.50;52.03;98915.56;5043267;28;20055;-53
2023/01/03 09:09:51;;;;;;;1.27;1.13;;;8.40;92.30;;;11.53;52.02;98923.25;5043277;28;20045;-52
2023/01/03 09:12:18;;;;;;;2.87;1.47;;;8.50;92.10;;;11.55;51.94;98918.63;5043305;28;20048;-53
2023/01/03 09:14:46;;;;;;;1.77;1.57;;;8.50;92.00;;;11.58;51.40;98926.38;5041831;28;20041;-48
2023/01/03 09:17:15;;;;;;;2.33;1.47;;;8.50;91.20;;;11.56;51.78;98925.66;5035612;28;20045;-52
2023/01/03 09:19:42;;;;;;;2.87;1.50;;;8.50;91.40;;;11.54;51.52;98935.63;5043223;28;20038;-51
2023/01/03 09:22:10;;;;;;;2.67;1.53;;;8.40;91.10;;;11.50;51.39;98928.88;5043046;28;20052;-52
2023/01/03 09:24:38;;;;;;;1.63;1.40;;;8.40;91.40;;;11.50;51.75;98931.56;5042376;28;20321;-53
2023/01/03 09:27:06;;;;;;;1.97;1.57;;;8.40;91.30;;;11.49;51.67;98931.69;5043023;28;20100;-53
2023/01/03 09:29:33;;;;;;;2.73;1.80;;;8.40;91.10;;;11.49;51.61;98935.19;5042965;28;20045;-53
2023/01/03 09:32:02;;;;;;;1.83;1.40;;;8.40;91.00;;;11.49;51.71;98940.53;5042798;28;20058;-51
2023/01/03 09:34:30;;;;;;;2.93;1.57;;;8.40;91.20;;;11.46;51.58;98935.47;5042644;28;20047;-52
2023/01/03 09:36:58;;;;;;;2.33;1.83;;;8.40;91.60;;;11.45;51.41;98943.59;5042783;28;20041;-53
2023/01/03 09:39:25;;;;;;;3.33;1.53;;;8.30;91.00;;;11.38;51.39;98944.16;5042731;28;20041;-52
2023/01/03 09:44:40;;;;;;;3.23;2.07;;;8.20;90.90;;;11.32;51.41;98946.50;5042429;28;20045;-52
2023/01/03 09:47:22;;;;;;;1.93;1.63;;;8.20;91.20;;;11.31;51.47;98945.66;5041596;28;20045;-49
2023/01/03 09:49:53;;;;;;;2.93;2.17;;;8.20;91.50;;;11.32;51.48;98946.50;5041077;28;20045;-51
2023/01/03 10:05:27;;;;;;;2.07;1.37;;;8.30;91.60;;;11.32;51.52;98944.69;5037107;28;20045;-55
2023/01/03 10:08:31;;;;;;;2.23;1.53;;;8.30;91.10;;;11.35;51.80;98938.22;5024856;28;20045;-51
2023/01/03 10:11:03;;;;;;;1.90;1.40;;;8.30;90.90;;;11.33;51.56;98934.88;5041232;28;20064;-52
2023/01/03 10:13:40;;;;;;;2.40;2.00;;;8.30;90.70;;;11.32;51.75;98936.69;5042451;28;20041;-54
2023/01/03 10:16:21;;;;;;;2.50;1.67;;;8.20;90.70;;;11.33;51.32;98938.38;5040944;28;20059;-54
2023/01/03 10:19:14;;;;;;;2.50;1.40;;;8.20;90.90;;;11.34;51.57;98947.19;5040492;28;20049;-51
2023/01/03 10:21:56;;;;;;;2.40;1.40;;;8.30;91.10;;;11.35;51.49;98948.91;5042505;28;20371;-51
2023/01/03 10:24:31;;;;;;;2.97;1.27;;;8.30;90.80;;;11.37;51.31;98945.09;5034948;28;20045;-50
2023/01/03 10:27:23;;;;;;;1.40;1.30;;;8.30;90.60;;;11.37;51.52;98947.78;5042124;28;20247;-52
2023/01/03 10:29:58;;;;;;;3.63;2.47;;;8.30;90.60;;;11.39;51.49;98951.16;5040165;28;20042;-51
2023/01/03 10:32:59;;;;;;;2.87;1.33;;;8.30;90.40;;;11.41;51.68;98949.19;5040635;28;20102;-53
2023/01/03 10:35:32;;;;;;;5.80;2.90;;;8.40;90.10;;;11.51;51.19;98945.72;5033798;28;20055;-52
2023/01/03 10:38:01;;;;;;;4.73;3.33;;;8.40;90.30;;;11.54;51.71;98942.78;5041915;28;20049;-50
2023/01/03 10:40:58;;;;;;;12.73;7.67;;;8.50;90.20;;;11.55;51.55;98944.47;5041933;28;20045;-53
2023/01/03 10:43:37;;;;;;;15.80;8.93;;;8.50;89.90;;;11.62;51.65;98938.44;5033589;28;20045;-52
2023/01/03 10:46:25;;;;;;;15.47;11.00;;;8.60;90.10;;;11.66;51.29;98938.19;5039050;28;20049;-55
2023/01/03 10:48:56;;;;;;;25.63;15.93;;;8.60;89.70;;;11.70;51.74;98935.09;5039927;28;20053;-54
2023/01/03 10:52:18;;;;;;;7.53;4.43;;;8.70;89.90;;;11.76;51.45;98934.56;5040876;28;20057;-54
2023/01/03 10:54:54;;;;;;;3.87;2.27;;;8.70;88.70;;;11.78;51.13;98939.75;5037665;28;20247;-53
2023/01/03 10:57:47;;;;;;;2.20;1.43;;;8.70;87.90;;;11.79;50.89;98925.44;5033758;28;20041;-53
2023/01/03 11:00:36;;;;;;;3.23;2.03;;;8.80;87.10;;;11.83;51.22;98914.34;5041672;28;20041;-54
2023/01/03 11:03:25;;;;;;;2.13;1.43;;;8.80;87.00;;;11.88;51.06;98910.41;5040600;28;20045;-54
2023/01/03 11:05:58;;;;;;;3.60;1.20;;;8.90;86.80;;;11.96;50.77;98914.13;5041383;28;20356;-53
2023/01/03 11:08:56;;;;;;;1.38;1.15;;;8.90;86.80;;;11.99;50.57;98910.34;5043063;28;20042;-53
2023/01/03 11:11:32;;;;;;;2.93;1.20;;;9.00;85.80;;;12.05;50.40;98912.44;5038878;28;20045;-49
2023/01/03 11:14:22;;;;;;;1.10;1.00;;;9.00;85.90;;;12.06;50.50;98913.28;5045094;28;20059;-50
2023/01/03 11:16:57;;;;;;;2.03;1.37;;;9.10;84.90;;;12.09;50.33;98908.50;5044377;28;20045;-50
2023/01/03 11:19:28;;;;;;;1.70;0.90;;;9.10;84.50;;;12.09;49.90;98905.00;5045619;28;20043;-52
2023/01/03 11:22:29;;;;;;;1.13;1.03;;;9.10;84.20;;;12.10;50.19;98915.53;5045373;28;20050;-55
2023/01/03 11:25:49;;;;;;;2.17;1.10;;;9.10;83.20;;;12.14;50.27;98916.13;5044847;28;20064;-54
2023/01/03 11:29:04;;;;;;;2.37;1.07;;;9.20;82.70;;;12.19;49.99;98912.03;5037971;28;20056;-53
2023/01/03 11:31:50;;;;;;;1.45;0.88;;;9.20;82.80;;;12.24;49.76;98908.09;5046148;28;20053;-51
2023/01/03 11:35:12;;;;;;;3.70;1.10;;;9.20;82.00;;;12.19;50.13;98909.38;5037387;28;20049;-53
2023/01/03 11:38:14;;;;;;;1.33;1.00;;;9.20;81.80;;;12.29;49.52;98898.69;5049641;28;20053;-54
2023/01/03 11:41:18;;;;;;;2.33;0.93;;;9.30;82.00;;;12.28;49.73;98899.66;5045124;28;20045;-54
2023/01/03 11:43:55;;;;;;;0.85;0.82;;;9.30;80.40;;;12.33;49.38;98886.72;5041453;28;20048;-53
2023/01/03 11:46:44;;;;;;;2.70;0.93;;;9.40;80.60;;;12.37;49.45;98888.13;5038530;28;20046;-51
2023/01/03 11:49:50;;;;;;;0.67;0.63;;;9.40;80.10;;;12.42;49.24;98877.00;5043954;28;20056;-51
2023/01/03 11:52:38;;;;;;;2.20;0.90;;;9.60;80.10;;;12.53;48.98;98876.84;5075108;28;20041;-50
2023/01/03 11:55:52;;;;;;;2.50;1.00;;;9.60;79.80;;;12.57;49.43;98888.94;5046701;28;20072;-51
2023/01/03 11:58:51;;;;;;;1.20;1.00;;;9.70;78.60;;;12.64;49.18;98877.66;5037414;28;20047;-50
2023/01/03 12:01:49;;;;;;;3.00;1.20;;;9.70;78.00;;;12.66;48.76;98868.53;5036177;28;20042;-50
2023/01/03 12:04:59;;;;;;;2.53;0.90;;;9.70;78.30;;;12.64;48.90;98866.97;5036694;28;20351;-52